createdAt,value
2023-02-17T00:00:37.118Z,1011.89
2023-02-17T00:01:22.610Z,1011.89
2023-02-17T00:02:08.657Z,1011.89
2023-02-17T00:02:54.524Z,1011.99
2023-02-17T00:03:40.659Z,1012.09
2023-02-17T00:04:26.590Z,1011.99
2023-02-17T00:05:12.699Z,1012.19
2023-02-17T00:05:58.613Z,1012.19
2023-02-17T00:06:44.659Z,1011.99
2023-02-17T00:07:30.538Z,1011.99
2023-02-17T00:08:16.638Z,1011.99
2023-02-17T00:09:02.617Z,1011.99
2023-02-17T00:09:48.835Z,1011.99
2023-02-17T00:10:34.641Z,1011.89
2023-02-17T00:11:20.730Z,1011.99
2023-02-17T00:12:06.598Z,1011.99
2023-02-17T00:12:52.634Z,1011.99
2023-02-17T00:13:38.637Z,1012.09
2023-02-17T00:14:24.634Z,1011.99
2023-02-17T00:15:10.706Z,1011.99
2023-02-17T00:15:56.667Z,1011.89
2023-02-17T00:16:42.618Z,1011.99
2023-02-17T00:17:28.654Z,1011.99
2023-02-17T00:18:14.704Z,1012.09
2023-02-17T00:19:00.828Z,1012.09
2023-02-17T00:19:46.643Z,1011.72
2023-02-17T00:20:32.702Z,1011.89
2023-02-17T00:21:18.709Z,1011.99
2023-02-17T00:22:04.678Z,1011.99
2023-02-17T00:22:50.732Z,1012.09
2023-02-17T00:23:36.987Z,1011.89
2023-02-17T00:24:22.719Z,1011.99
2023-02-17T00:25:08.694Z,1011.99
2023-02-17T00:25:54.659Z,1011.89
2023-02-17T00:26:41.106Z,1012.19
2023-02-17T00:27:26.734Z,1012.09
2023-02-17T00:28:12.740Z,1011.99
2023-02-17T00:28:58.762Z,1011.99
2023-02-17T00:29:44.701Z,1011.99
2023-02-17T00:30:30.817Z,1011.99
2023-02-17T00:31:16.807Z,1011.89
2023-02-17T00:32:02.790Z,1011.89
2023-02-17T00:32:48.870Z,1012.09
2023-02-17T00:33:34.752Z,1011.99
2023-02-17T00:34:20.779Z,1012.09
2023-02-17T00:35:06.712Z,1012.09
2023-02-17T00:35:52.783Z,1012.09
2023-02-17T00:36:38.990Z,1012.19
2023-02-17T00:37:24.736Z,1011.99
2023-02-17T00:38:10.804Z,1011.99
2023-02-17T00:38:56.721Z,1011.89
2023-02-17T00:39:42.765Z,1011.99
2023-02-17T00:40:28.789Z,1011.99
2023-02-17T00:41:14.813Z,1012.09
2023-02-17T00:42:00.766Z,1012.09
2023-02-17T00:42:46.733Z,1012.19
2023-02-17T00:43:32.795Z,1011.78
2023-02-17T00:44:18.796Z,1012.19
2023-02-17T00:45:04.928Z,1012.19
2023-02-17T00:45:50.823Z,1012.19
2023-02-17T00:46:37.206Z,1012.29
2023-02-17T00:47:22.833Z,1012.19
2023-02-17T00:48:08.757Z,1012.19
2023-02-17T00:48:54.815Z,1012.09
2023-02-17T00:49:40.787Z,1012.09
2023-02-17T00:50:26.818Z,1011.78
2023-02-17T00:51:12.806Z,1012.09
2023-02-17T00:51:58.764Z,1012.09
2023-02-17T00:52:44.810Z,1011.99
2023-02-17T00:53:30.953Z,1011.89
2023-02-17T00:54:16.786Z,1012.09
2023-02-17T00:55:02.800Z,1012.09
2023-02-17T00:55:48.853Z,1011.78
2023-02-17T00:56:34.863Z,1011.72
2023-02-17T00:57:20.878Z,1011.89
2023-02-17T00:58:06.796Z,1011.89
2023-02-17T00:58:52.806Z,1011.89
2023-02-17T00:59:38.830Z,1011.78
2023-02-17T01:00:24.851Z,1012.09
2023-02-17T01:01:10.863Z,1012.09
2023-02-17T01:01:56.945Z,1012.09
2023-02-17T01:02:42.840Z,1011.89
2023-02-17T01:03:28.819Z,1012.09
2023-02-17T01:04:14.861Z,1011.78
2023-02-17T01:05:00.997Z,1011.78
2023-02-17T01:05:46.853Z,1011.89
2023-02-17T01:06:32.923Z,1012.09
2023-02-17T01:07:18.849Z,1011.99
2023-02-17T01:08:04.875Z,1011.99
2023-02-17T01:08:50.970Z,1012.19
2023-02-17T01:09:37.097Z,1011.99
2023-02-17T01:10:23.029Z,1011.89
2023-02-17T01:11:08.958Z,1011.89
2023-02-17T01:11:54.897Z,1012.29
2023-02-17T01:12:40.894Z,1012.19
2023-02-17T01:13:27.123Z,1011.99
2023-02-17T01:14:12.960Z,1012.29
2023-02-17T01:14:58.988Z,1012.29
2023-02-17T01:15:45.163Z,1011.99
2023-02-17T01:16:31.048Z,1012.19
2023-02-17T01:17:16.990Z,1012.19
2023-02-17T01:18:03.039Z,1012.19
2023-02-17T01:18:49.011Z,1012.09
2023-02-17T01:19:35.009Z,1012.29
2023-02-17T01:20:21.076Z,1012.19
2023-02-17T01:21:07.010Z,1012.19
2023-02-17T01:21:53.152Z,1011.99
2023-02-17T01:22:38.942Z,1012.09
2023-02-17T01:23:25.061Z,1012.19
2023-02-17T01:24:11.047Z,1012.19
2023-02-17T01:24:57.000Z,1011.89
2023-02-17T01:25:43.113Z,1012.19
2023-02-17T01:26:28.932Z,1012.19
2023-02-17T01:27:15.046Z,1012.09
2023-02-17T01:28:01.059Z,1012.09
2023-02-17T01:28:47.005Z,1011.99
2023-02-17T01:29:32.971Z,1012.29
2023-02-17T01:30:19.235Z,1012.09
2023-02-17T01:31:05.071Z,1012.09
2023-02-17T01:31:51.143Z,1012.09
2023-02-17T01:32:37.323Z,1012.09
2023-02-17T01:33:23.044Z,1012.29
2023-02-17T01:34:09.090Z,1012.29
2023-02-17T01:34:55.018Z,1012.09
2023-02-17T01:35:41.039Z,1012.19
2023-02-17T01:36:26.976Z,1011.99
2023-02-17T01:37:13.069Z,1012.19
2023-02-17T01:37:59.082Z,1012.19
2023-02-17T01:38:45.246Z,1011.99
2023-02-17T01:39:31.111Z,1012.19
2023-02-17T01:40:17.040Z,1012.19
2023-02-17T01:41:03.161Z,1012.19
2023-02-17T01:41:49.203Z,1012.09
2023-02-17T01:42:35.187Z,1012.29
2023-02-17T01:43:21.118Z,1012.29
2023-02-17T01:44:07.147Z,1012.29
2023-02-17T01:44:53.148Z,1012.09
2023-02-17T01:45:39.191Z,1012.09
2023-02-17T01:46:25.168Z,1012.39
2023-02-17T01:47:11.242Z,1012.39
2023-02-17T01:47:57.151Z,1011.99
2023-02-17T01:48:43.100Z,1012.19
2023-02-17T01:49:29.086Z,1012.09
2023-02-17T01:50:15.154Z,1011.89
2023-02-17T01:51:01.193Z,1011.89
2023-02-17T01:51:47.155Z,1012.09
2023-02-17T01:52:33.158Z,1012.09
2023-02-17T01:53:19.281Z,1012.19
2023-02-17T01:54:05.281Z,1012.19
2023-02-17T01:54:51.115Z,1012.29
2023-02-17T01:55:37.325Z,1012.09
2023-02-17T01:56:23.182Z,1011.99
2023-02-17T01:57:09.204Z,1011.99
2023-02-17T01:57:55.066Z,1012.09
2023-02-17T01:58:41.066Z,1011.99
2023-02-17T01:59:27.226Z,1012.09
2023-02-17T02:00:13.188Z,1011.89
2023-02-17T02:00:59.134Z,1011.89
2023-02-17T02:01:45.205Z,1012.09
2023-02-17T02:02:31.262Z,1011.99
2023-02-17T02:03:17.142Z,1012.09
2023-02-17T02:04:03.169Z,1012.09
2023-02-17T02:04:49.310Z,1011.78
2023-02-17T02:05:37.503Z,1012.09
2023-02-17T02:06:21.175Z,1012.09
2023-02-17T02:07:07.200Z,1012.09
2023-02-17T02:07:53.233Z,1011.78
2023-02-17T02:08:39.312Z,1012.19
2023-02-17T02:09:25.227Z,1011.78
2023-02-17T02:10:11.276Z,1011.78
2023-02-17T02:10:57.189Z,1011.89
2023-02-17T02:11:43.337Z,1011.89
2023-02-17T02:12:29.341Z,1011.78
2023-02-17T02:13:15.226Z,1011.78
2023-02-17T02:14:01.281Z,1011.78
2023-02-17T02:14:47.286Z,1011.78
2023-02-17T02:15:33.498Z,1011.89
2023-02-17T02:16:19.229Z,1011.72
2023-02-17T02:17:05.252Z,1011.72
2023-02-17T02:17:51.393Z,1011.78
2023-02-17T02:18:37.327Z,1011.89
2023-02-17T02:19:23.305Z,1011.72
2023-02-17T02:20:09.296Z,1011.72
2023-02-17T02:20:55.275Z,1011.51
2023-02-17T02:21:41.253Z,1011.72
2023-02-17T02:22:27.256Z,1011.61
2023-02-17T02:23:13.278Z,1011.72
2023-02-17T02:23:59.260Z,1011.72
2023-02-17T02:24:45.276Z,1011.72
2023-02-17T02:25:31.286Z,1011.61
2023-02-17T02:26:17.316Z,1011.51
2023-02-17T02:27:03.317Z,1011.51
2023-02-17T02:27:49.378Z,1011.41
2023-02-17T02:28:35.373Z,1011.41
2023-02-17T02:29:21.251Z,1011.51
2023-02-17T02:30:07.392Z,1011.51
2023-02-17T02:30:53.380Z,1011.51
2023-02-17T02:31:39.312Z,1011.41
2023-02-17T02:32:25.388Z,1011.51
2023-02-17T02:33:11.398Z,1011.51
2023-02-17T02:33:57.281Z,1011.31
2023-02-17T02:34:43.315Z,1011.31
2023-02-17T02:35:29.264Z,1011.41
2023-02-17T02:36:15.388Z,1011.51
2023-02-17T02:37:01.329Z,1011.51
2023-02-17T02:37:47.394Z,1011.41
2023-02-17T02:38:33.358Z,1011.41
2023-02-17T02:39:19.334Z,1011.51
2023-02-17T02:40:05.401Z,1011.51
2023-02-17T02:40:51.358Z,1011.41
2023-02-17T02:41:37.306Z,1011.41
2023-02-17T02:42:23.321Z,1011.51
2023-02-17T02:43:09.331Z,1011.51
2023-02-17T02:43:55.349Z,1011.41
2023-02-17T02:44:41.480Z,1011.31
2023-02-17T02:45:27.632Z,1011.31
2023-02-17T02:46:13.442Z,1011.41
2023-02-17T02:47:00.240Z,1011.41
2023-02-17T02:47:45.378Z,1011.41
2023-02-17T02:48:31.447Z,1011.31
2023-02-17T02:49:17.363Z,1011.11
2023-02-17T02:50:03.352Z,1011.11
2023-02-17T02:50:49.409Z,1011.51
2023-02-17T02:51:35.443Z,1011.41
2023-02-17T02:52:21.305Z,1011.51
2023-02-17T02:53:07.379Z,1011.51
2023-02-17T02:53:53.405Z,1011.31
2023-02-17T02:54:39.428Z,1011.31
2023-02-17T02:55:25.449Z,1011.31
2023-02-17T02:56:11.572Z,1011.31
2023-02-17T02:56:57.417Z,1011.41
2023-02-17T02:57:43.443Z,1011.00
2023-02-17T02:58:29.646Z,1011.11
2023-02-17T02:59:15.398Z,1011.21
2023-02-17T03:00:01.947Z,1011.21
2023-02-17T03:00:47.448Z,1011.31
2023-02-17T03:01:33.404Z,1011.21
2023-02-17T03:02:19.486Z,1011.31
2023-02-17T03:03:05.564Z,1011.31
2023-02-17T03:03:51.473Z,1011.11
2023-02-17T03:04:37.547Z,1011.21
2023-02-17T03:05:23.566Z,1011.11
2023-02-17T03:06:09.408Z,1011.11
2023-02-17T03:06:55.514Z,1011.11
2023-02-17T03:07:41.451Z,1011.11
2023-02-17T03:08:27.522Z,1011.21
2023-02-17T03:09:13.493Z,1011.11
2023-02-17T03:09:59.742Z,1011.11
2023-02-17T03:10:45.462Z,1011.31
2023-02-17T03:11:31.463Z,1011.11
2023-02-17T03:12:17.464Z,1011.00
2023-02-17T03:13:03.586Z,1011.00
2023-02-17T03:13:49.750Z,1011.11
2023-02-17T03:14:35.513Z,1011.21
2023-02-17T03:15:21.559Z,1011.21
2023-02-17T03:16:07.774Z,1011.21
2023-02-17T03:16:53.563Z,1011.00
2023-02-17T03:17:39.509Z,1010.90
2023-02-17T03:18:25.564Z,1011.00
2023-02-17T03:19:11.615Z,1011.00
2023-02-17T03:19:57.590Z,1011.21
2023-02-17T03:20:43.478Z,1011.00
2023-02-17T03:21:29.734Z,1011.00
2023-02-17T03:22:15.510Z,1010.90
2023-02-17T03:23:01.498Z,1010.90
2023-02-17T03:23:47.529Z,1011.00
2023-02-17T03:24:33.511Z,1011.21
2023-02-17T03:25:19.636Z,1010.80
2023-02-17T03:26:05.711Z,1010.80
2023-02-17T03:26:51.410Z,1011.00
2023-02-17T03:27:37.468Z,1011.11
2023-02-17T03:28:23.440Z,1011.00
2023-02-17T03:29:09.485Z,1011.00
2023-02-17T03:29:55.566Z,1010.90
2023-02-17T03:30:41.517Z,1011.11
2023-02-17T03:31:30.360Z,1011.00
2023-02-17T03:32:13.557Z,1011.21
2023-02-17T03:32:59.682Z,1011.21
2023-02-17T03:33:44.709Z,1011.21
2023-02-17T03:34:31.518Z,1010.90
2023-02-17T03:35:17.497Z,1010.90
2023-02-17T03:36:03.609Z,1010.90
2023-02-17T03:36:49.539Z,1011.00
2023-02-17T03:37:35.510Z,1011.21
2023-02-17T03:38:21.474Z,1011.00
2023-02-17T03:39:07.498Z,1011.00
2023-02-17T03:39:53.459Z,1011.11
2023-02-17T03:40:39.433Z,1011.21
2023-02-17T03:41:25.524Z,1011.11
2023-02-17T03:42:11.533Z,1011.11
2023-02-17T03:42:57.467Z,1011.31
2023-02-17T03:43:43.562Z,1011.11
2023-02-17T03:44:29.903Z,1011.00
2023-02-17T03:45:15.600Z,1011.00
2023-02-17T03:46:01.561Z,1011.00
2023-02-17T03:46:47.568Z,1011.31
2023-02-17T03:47:33.529Z,1011.00
2023-02-17T03:48:19.564Z,1011.21
2023-02-17T03:49:05.654Z,1011.21
2023-02-17T03:49:51.496Z,1011.21
2023-02-17T03:50:37.523Z,1011.11
2023-02-17T03:51:23.525Z,1011.21
2023-02-17T03:52:09.586Z,1011.21
2023-02-17T03:52:55.639Z,1011.21
2023-02-17T03:53:41.567Z,1011.31
2023-02-17T03:54:27.541Z,1011.31
2023-02-17T03:55:13.580Z,1011.31
2023-02-17T03:55:59.865Z,1011.31
2023-02-17T03:56:45.621Z,1011.00
2023-02-17T03:57:31.565Z,1011.11
2023-02-17T03:58:17.697Z,1011.00
2023-02-17T03:59:03.558Z,1011.00
2023-02-17T03:59:49.605Z,1010.80
2023-02-17T04:00:35.740Z,1010.90
2023-02-17T04:01:21.604Z,1011.00
2023-02-17T04:02:07.550Z,1011.00
2023-02-17T04:02:53.589Z,1011.31
2023-02-17T04:03:39.593Z,1011.21
2023-02-17T04:04:25.629Z,1011.00
2023-02-17T04:05:11.603Z,1011.00
2023-02-17T04:05:57.588Z,1011.00
2023-02-17T04:06:43.601Z,1011.11
2023-02-17T04:07:29.878Z,1011.21
2023-02-17T04:08:15.672Z,1011.11
2023-02-17T04:09:01.610Z,1011.11
2023-02-17T04:09:47.630Z,1011.41
2023-02-17T04:10:33.691Z,1011.11
2023-02-17T04:11:19.696Z,1011.21
2023-02-17T04:12:05.694Z,1011.21
2023-02-17T04:12:51.656Z,1011.00
2023-02-17T04:13:37.574Z,1011.11
2023-02-17T04:14:23.644Z,1010.90
2023-02-17T04:15:09.683Z,1010.90
2023-02-17T04:15:55.767Z,1011.21
2023-02-17T04:16:41.681Z,1011.11
2023-02-17T04:17:27.642Z,1011.11
2023-02-17T04:18:13.680Z,1011.00
2023-02-17T04:18:59.989Z,1011.00
2023-02-17T04:19:45.697Z,1011.00
2023-02-17T04:20:31.646Z,1011.21
2023-02-17T04:21:17.645Z,1011.11
2023-02-17T04:22:03.782Z,1011.11
2023-02-17T04:22:49.715Z,1011.00
2023-02-17T04:23:35.699Z,1011.11
2023-02-17T04:24:21.681Z,1011.11
2023-02-17T04:25:07.759Z,1011.11
2023-02-17T04:25:53.722Z,1011.21
2023-02-17T04:26:39.656Z,1011.00
2023-02-17T04:27:25.712Z,1011.51
2023-02-17T04:28:11.708Z,1011.51
2023-02-17T04:28:57.720Z,1011.21
2023-02-17T04:29:43.710Z,1011.11
2023-02-17T04:30:30.079Z,1011.11
2023-02-17T04:31:15.866Z,1011.21
2023-02-17T04:32:01.886Z,1011.21
2023-02-17T04:32:47.673Z,1011.11
2023-02-17T04:33:33.721Z,1011.00
2023-02-17T04:34:19.748Z,1011.31
2023-02-17T04:35:05.726Z,1011.31
2023-02-17T04:35:51.675Z,1011.31
2023-02-17T04:36:37.694Z,1011.11
2023-02-17T04:37:23.811Z,1011.31
2023-02-17T04:38:09.689Z,1011.31
2023-02-17T04:38:55.730Z,1011.21
2023-02-17T04:39:41.744Z,1011.11
2023-02-17T04:40:27.688Z,1011.21
2023-02-17T04:41:13.748Z,1011.11
2023-02-17T04:42:00.043Z,1011.11
2023-02-17T04:42:45.748Z,1011.21
2023-02-17T04:43:31.773Z,1011.41
2023-02-17T04:44:17.806Z,1011.11
2023-02-17T04:45:03.856Z,1011.11
2023-02-17T04:45:49.961Z,1011.11
2023-02-17T04:46:35.797Z,1011.11
2023-02-17T04:47:21.809Z,1011.21
2023-02-17T04:48:07.783Z,1011.21
2023-02-17T04:48:53.826Z,1011.31
2023-02-17T04:49:39.784Z,1011.41
2023-02-17T04:50:25.780Z,1011.31
2023-02-17T04:51:11.843Z,1011.31
2023-02-17T04:51:57.793Z,1011.31
2023-02-17T04:52:43.843Z,1011.21
2023-02-17T04:53:30.245Z,1011.41
2023-02-17T04:54:15.820Z,1011.31
2023-02-17T04:55:01.837Z,1011.31
2023-02-17T04:55:47.808Z,1011.11
2023-02-17T04:56:33.833Z,1011.31
2023-02-17T04:57:19.906Z,1011.11
2023-02-17T04:58:05.826Z,1011.11
2023-02-17T04:58:51.799Z,1011.31
2023-02-17T04:59:37.866Z,1011.21
2023-02-17T05:00:23.987Z,1011.31
2023-02-17T05:01:09.817Z,1011.31
2023-02-17T05:01:55.825Z,1011.51
2023-02-17T05:02:41.870Z,1011.41
2023-02-17T05:03:27.823Z,1011.31
2023-02-17T05:04:13.863Z,1011.41
2023-02-17T05:05:00.310Z,1011.41
2023-02-17T05:05:45.897Z,1011.31
2023-02-17T05:06:31.847Z,1011.31
2023-02-17T05:07:17.926Z,1011.21
2023-02-17T05:08:03.874Z,1011.21
2023-02-17T05:08:49.921Z,1011.31
2023-02-17T05:09:35.897Z,1011.21
2023-02-17T05:10:23.896Z,1011.11
2023-02-17T05:11:07.873Z,1011.11
2023-02-17T05:11:53.887Z,1011.21
2023-02-17T05:12:39.884Z,1011.11
2023-02-17T05:13:25.893Z,1011.21
2023-02-17T05:14:11.903Z,1011.21
2023-02-17T05:14:57.879Z,1011.11
2023-02-17T05:15:44.033Z,1011.41
2023-02-17T05:16:30.139Z,1011.11
2023-02-17T05:17:15.923Z,1011.00
2023-02-17T05:18:02.040Z,1011.00
2023-02-17T05:18:47.864Z,1011.11
2023-02-17T05:19:33.966Z,1011.21
2023-02-17T05:20:20.008Z,1011.21
2023-02-17T05:21:05.923Z,1011.21
2023-02-17T05:21:51.950Z,1011.11
2023-02-17T05:22:37.909Z,1011.21
2023-02-17T05:23:23.961Z,1011.21
2023-02-17T05:24:09.921Z,1011.21
2023-02-17T05:24:55.926Z,1011.21
2023-02-17T05:25:41.921Z,1011.21
2023-02-17T05:26:28.028Z,1011.00
2023-02-17T05:27:14.006Z,1011.41
2023-02-17T05:28:00.279Z,1011.41
2023-02-17T05:28:45.966Z,1011.21
2023-02-17T05:29:31.970Z,1011.41
2023-02-17T05:30:18.160Z,1011.41
2023-02-17T05:31:04.021Z,1011.41
2023-02-17T05:31:50.131Z,1011.41
2023-02-17T05:32:36.016Z,1011.31
2023-02-17T05:33:21.980Z,1011.31
2023-02-17T05:34:07.943Z,1011.31
2023-02-17T05:34:53.981Z,1011.31
2023-02-17T05:35:40.000Z,1011.51
2023-02-17T05:36:26.032Z,1011.21
2023-02-17T05:37:12.003Z,1011.21
2023-02-17T05:37:58.039Z,1011.21
2023-02-17T05:38:44.011Z,1011.31
2023-02-17T05:39:30.305Z,1011.21
2023-02-17T05:40:15.999Z,1011.21
2023-02-17T05:41:02.012Z,1011.21
2023-02-17T05:41:48.040Z,1011.51
2023-02-17T05:42:34.086Z,1011.31
2023-02-17T05:43:20.088Z,1011.41
2023-02-17T05:44:06.023Z,1011.41
2023-02-17T05:44:52.011Z,1011.00
2023-02-17T05:45:38.082Z,1011.31
2023-02-17T05:46:24.118Z,1011.31
2023-02-17T05:47:10.035Z,1011.31
2023-02-17T05:47:56.105Z,1011.61
2023-02-17T05:48:42.091Z,1011.41
2023-02-17T05:49:28.098Z,1011.41
2023-02-17T05:50:14.104Z,1011.51
2023-02-17T05:51:00.348Z,1011.51
2023-02-17T05:51:46.110Z,1011.21
2023-02-17T05:52:32.106Z,1011.41
2023-02-17T05:53:18.154Z,1011.41
2023-02-17T05:54:04.052Z,1011.41
2023-02-17T05:54:50.132Z,1011.41
2023-02-17T05:55:36.071Z,1011.41
2023-02-17T05:56:22.133Z,1011.61
2023-02-17T05:57:08.084Z,1011.61
2023-02-17T05:57:54.128Z,1011.51
2023-02-17T05:58:40.092Z,1011.78
2023-02-17T05:59:26.103Z,1011.31
2023-02-17T06:00:12.253Z,1011.31
2023-02-17T06:00:58.265Z,1011.61
2023-02-17T06:01:44.188Z,1011.61
2023-02-17T06:02:30.356Z,1011.72
2023-02-17T06:03:16.177Z,1011.61
2023-02-17T06:04:02.196Z,1011.61
2023-02-17T06:04:48.283Z,1011.51
2023-02-17T06:05:34.173Z,1011.51
2023-02-17T06:06:20.152Z,1011.51
2023-02-17T06:07:06.247Z,1011.51
2023-02-17T06:07:52.112Z,1011.51
2023-02-17T06:08:38.121Z,1011.41
2023-02-17T06:09:24.172Z,1011.41
2023-02-17T06:10:10.212Z,1011.41
2023-02-17T06:10:56.184Z,1011.61
2023-02-17T06:11:42.181Z,1011.72
2023-02-17T06:12:28.175Z,1011.61
2023-02-17T06:13:14.201Z,1011.41
2023-02-17T06:14:00.478Z,1011.41
2023-02-17T06:14:46.263Z,1011.51
2023-02-17T06:15:32.283Z,1011.78
2023-02-17T06:16:18.324Z,1011.31
2023-02-17T06:17:04.251Z,1011.31
2023-02-17T06:17:50.263Z,1011.51
2023-02-17T06:18:36.757Z,1011.51
2023-02-17T06:19:22.191Z,1011.41
2023-02-17T06:20:08.166Z,1011.41
2023-02-17T06:20:54.200Z,1011.51
2023-02-17T06:21:40.202Z,1011.41
2023-02-17T06:22:26.248Z,1011.41
2023-02-17T06:23:12.236Z,1011.41
2023-02-17T06:23:58.228Z,1011.51
2023-02-17T06:24:44.250Z,1011.21
2023-02-17T06:25:30.432Z,1011.51
2023-02-17T06:26:16.242Z,1011.51
2023-02-17T06:27:02.204Z,1011.51
2023-02-17T06:27:48.313Z,1011.51
2023-02-17T06:28:35.206Z,1011.31
2023-02-17T06:29:20.414Z,1011.31
2023-02-17T06:30:06.472Z,1011.31
2023-02-17T06:30:52.279Z,1011.51
2023-02-17T06:31:38.373Z,1011.51
2023-02-17T06:32:24.298Z,1011.41
2023-02-17T06:33:10.334Z,1011.41
2023-02-17T06:33:56.321Z,1011.31
2023-02-17T06:34:42.247Z,1011.21
2023-02-17T06:35:28.296Z,1011.21
2023-02-17T06:36:14.348Z,1011.31
2023-02-17T06:37:00.427Z,1011.31
2023-02-17T06:37:46.314Z,1011.31
2023-02-17T06:38:32.304Z,1011.41
2023-02-17T06:39:18.327Z,1011.21
2023-02-17T06:40:04.309Z,1011.21
2023-02-17T06:40:50.332Z,1011.41
2023-02-17T06:41:36.842Z,1011.21
2023-02-17T06:42:22.300Z,1011.31
2023-02-17T06:43:08.305Z,1011.31
2023-02-17T06:43:54.315Z,1011.61
2023-02-17T06:44:40.400Z,1011.21
2023-02-17T06:45:26.537Z,1011.21
2023-02-17T06:46:12.386Z,1011.21
2023-02-17T06:46:58.355Z,1011.41
2023-02-17T06:47:44.343Z,1011.31
2023-02-17T06:48:30.480Z,1011.21
2023-02-17T06:49:16.378Z,1011.21
2023-02-17T06:50:02.382Z,1011.21
2023-02-17T06:50:48.395Z,1011.31
2023-02-17T06:51:34.376Z,1011.61
2023-02-17T06:52:20.402Z,1011.41
2023-02-17T06:53:06.464Z,1011.41
2023-02-17T06:53:52.385Z,1011.61
2023-02-17T06:54:38.362Z,1011.31
2023-02-17T06:55:24.456Z,1011.51
2023-02-17T06:56:10.350Z,1011.51
2023-02-17T06:56:56.395Z,1011.51
2023-02-17T06:57:42.442Z,1011.41
2023-02-17T06:58:28.438Z,1011.51
2023-02-17T06:59:14.679Z,1011.61
2023-02-17T07:00:00.770Z,1011.61
2023-02-17T07:00:46.399Z,1011.51
2023-02-17T07:01:32.388Z,1011.51
2023-02-17T07:02:18.470Z,1011.72
2023-02-17T07:03:04.950Z,1011.72
2023-02-17T07:03:50.471Z,1011.51
2023-02-17T07:04:36.998Z,1011.72
2023-02-17T07:05:22.460Z,1011.61
2023-02-17T07:06:08.510Z,1011.61
2023-02-17T07:06:54.502Z,1011.61
2023-02-17T07:07:40.422Z,1011.78
2023-02-17T07:08:26.554Z,1011.61
2023-02-17T07:09:12.480Z,1011.61
2023-02-17T07:09:58.509Z,1011.78
2023-02-17T07:10:44.485Z,1011.61
2023-02-17T07:11:30.527Z,1011.72
2023-02-17T07:12:16.422Z,1011.72
2023-02-17T07:13:02.456Z,1011.72
2023-02-17T07:13:48.501Z,1011.72
2023-02-17T07:14:34.578Z,1011.61
2023-02-17T07:15:20.594Z,1011.72
2023-02-17T07:16:06.829Z,1011.72
2023-02-17T07:16:52.506Z,1011.61
2023-02-17T07:17:38.482Z,1011.72
2023-02-17T07:18:24.458Z,1011.61
2023-02-17T07:19:10.510Z,1011.61
2023-02-17T07:19:56.586Z,1011.72
2023-02-17T07:20:42.504Z,1011.78
2023-02-17T07:21:28.521Z,1011.78
2023-02-17T07:22:14.511Z,1011.89
2023-02-17T07:23:00.744Z,1011.89
2023-02-17T07:23:46.530Z,1011.78
2023-02-17T07:24:32.683Z,1011.72
2023-02-17T07:25:18.617Z,1011.89
2023-02-17T07:26:05.224Z,1011.89
2023-02-17T07:26:50.590Z,1011.78
2023-02-17T07:27:37.350Z,1011.99
2023-02-17T07:28:22.663Z,1011.72
2023-02-17T07:29:08.625Z,1011.72
2023-02-17T07:29:54.663Z,1011.89
2023-02-17T07:30:40.864Z,1011.72
2023-02-17T07:31:26.661Z,1012.09
2023-02-17T07:32:12.712Z,1012.09
2023-02-17T07:32:58.651Z,1011.78
2023-02-17T07:33:44.685Z,1011.99
2023-02-17T07:34:30.686Z,1011.89
2023-02-17T07:35:16.699Z,1011.89
2023-02-17T07:36:02.823Z,1011.89
2023-02-17T07:36:48.656Z,1011.89
2023-02-17T07:37:34.782Z,1011.99
2023-02-17T07:38:20.696Z,1011.89
2023-02-17T07:39:06.731Z,1011.89
2023-02-17T07:39:52.760Z,1011.99
2023-02-17T07:40:38.806Z,1011.89
2023-02-17T07:41:24.752Z,1011.78
2023-02-17T07:42:10.652Z,1011.78
2023-02-17T07:42:56.730Z,1011.89
2023-02-17T07:43:42.743Z,1011.78
2023-02-17T07:44:28.655Z,1011.78
2023-02-17T07:45:14.765Z,1011.89
2023-02-17T07:46:00.828Z,1011.89
2023-02-17T07:46:46.688Z,1011.89
2023-02-17T07:47:32.705Z,1011.78
2023-02-17T07:48:18.788Z,1011.72
2023-02-17T07:49:04.738Z,1011.72
2023-02-17T07:49:50.755Z,1011.72
2023-02-17T07:50:37.268Z,1011.51
2023-02-17T07:51:22.701Z,1011.41
2023-02-17T07:52:08.728Z,1011.41
2023-02-17T07:52:54.751Z,1011.61
2023-02-17T07:53:40.760Z,1011.61
2023-02-17T07:54:26.794Z,1011.72
2023-02-17T07:55:12.738Z,1011.72
2023-02-17T07:55:58.775Z,1011.51
2023-02-17T07:56:44.746Z,1011.72
2023-02-17T07:57:30.762Z,1011.72
2023-02-17T07:58:16.786Z,1011.72
2023-02-17T07:59:02.824Z,1011.72
2023-02-17T07:59:48.750Z,1011.72
2023-02-17T08:00:34.909Z,1011.78
2023-02-17T08:01:20.943Z,1011.72
2023-02-17T08:02:06.876Z,1011.72
2023-02-17T08:02:52.838Z,1011.78
2023-02-17T08:03:38.783Z,1011.72
2023-02-17T08:04:24.861Z,1011.78
2023-02-17T08:05:10.781Z,1011.78
2023-02-17T08:05:56.850Z,1011.61
2023-02-17T08:06:42.909Z,1011.78
2023-02-17T08:07:28.860Z,1011.61
2023-02-17T08:08:14.813Z,1011.78
2023-02-17T08:09:01.021Z,1011.78
2023-02-17T08:09:46.852Z,1011.89
2023-02-17T08:10:32.876Z,1011.78
2023-02-17T08:11:18.832Z,1011.61
2023-02-17T08:12:04.890Z,1011.61
2023-02-17T08:12:50.884Z,1011.78
2023-02-17T08:13:37.822Z,1011.78
2023-02-17T08:14:22.862Z,1011.89
2023-02-17T08:15:08.979Z,1011.89
2023-02-17T08:15:54.855Z,1012.09
2023-02-17T08:16:40.866Z,1011.78
2023-02-17T08:17:26.887Z,1011.89
2023-02-17T08:18:12.887Z,1011.89
2023-02-17T08:18:58.845Z,1011.99
2023-02-17T08:19:48.898Z,1011.78
2023-02-17T08:20:30.851Z,1011.78
2023-02-17T08:21:16.936Z,1011.89
2023-02-17T08:22:02.944Z,1011.89
2023-02-17T08:22:48.942Z,1011.78
2023-02-17T08:23:34.957Z,1011.89
2023-02-17T08:24:20.904Z,1011.89
2023-02-17T08:25:06.984Z,1011.89
2023-02-17T08:25:52.894Z,1011.61
2023-02-17T08:26:38.964Z,1011.78
2023-02-17T08:27:24.932Z,1011.72
2023-02-17T08:28:10.872Z,1011.72
2023-02-17T08:28:56.868Z,1011.78
2023-02-17T08:29:42.913Z,1011.89
2023-02-17T08:30:29.280Z,1011.78
2023-02-17T08:31:14.928Z,1011.89
2023-02-17T08:32:01.044Z,1011.89
2023-02-17T08:32:46.981Z,1011.78
2023-02-17T08:33:32.919Z,1011.89
2023-02-17T08:34:18.904Z,1011.72
2023-02-17T08:35:05.093Z,1011.72
2023-02-17T08:35:51.036Z,1011.72
2023-02-17T08:36:37.784Z,1011.78
2023-02-17T08:37:23.021Z,1011.78
2023-02-17T08:38:09.000Z,1011.78
2023-02-17T08:38:55.062Z,1011.72
2023-02-17T08:39:41.030Z,1011.51
2023-02-17T08:40:27.057Z,1011.51
2023-02-17T08:41:12.922Z,1011.51
2023-02-17T08:41:59.360Z,1011.31
2023-02-17T08:42:44.964Z,1011.72
2023-02-17T08:43:31.014Z,1011.72
2023-02-17T08:44:16.961Z,1011.89
2023-02-17T08:45:03.097Z,1011.89
2023-02-17T08:45:49.000Z,1011.72
2023-02-17T08:46:35.269Z,1011.72
2023-02-17T08:47:21.175Z,1011.89
2023-02-17T08:48:07.120Z,1011.89
2023-02-17T08:48:53.004Z,1011.89
2023-02-17T08:49:39.040Z,1011.78
2023-02-17T08:50:24.980Z,1011.78
2023-02-17T08:51:11.076Z,1011.78
2023-02-17T08:51:57.053Z,1011.78
2023-02-17T08:52:42.973Z,1011.89
2023-02-17T08:53:28.963Z,1011.72
2023-02-17T08:54:15.008Z,1011.89
2023-02-17T08:55:00.984Z,1011.89
2023-02-17T08:55:49.450Z,1011.72
2023-02-17T08:56:33.058Z,1011.99
2023-02-17T08:57:19.105Z,1011.78
2023-02-17T08:58:05.148Z,1011.78
2023-02-17T08:58:51.095Z,1011.78
2023-02-17T08:59:37.557Z,1011.89
2023-02-17T09:00:23.119Z,1011.72
2023-02-17T09:01:09.187Z,1011.72
2023-02-17T09:01:55.122Z,1011.61
2023-02-17T09:02:41.073Z,1011.78
2023-02-17T09:03:27.141Z,1011.78
2023-02-17T09:04:13.031Z,1011.78
2023-02-17T09:04:59.259Z,1011.78
2023-02-17T09:05:45.123Z,1011.89
2023-02-17T09:06:31.111Z,1011.78
2023-02-17T09:07:17.053Z,1011.72
2023-02-17T09:08:03.078Z,1011.72
2023-02-17T09:08:49.064Z,1011.78
2023-02-17T09:09:35.192Z,1011.78
2023-02-17T09:10:21.116Z,1011.89
2023-02-17T09:11:09.440Z,1011.89
2023-02-17T09:11:53.097Z,1011.99
2023-02-17T09:12:39.115Z,1011.99
2023-02-17T09:13:25.343Z,1012.09
2023-02-17T09:14:11.151Z,1012.09
2023-02-17T09:14:57.158Z,1011.89
2023-02-17T09:15:43.257Z,1011.99
2023-02-17T09:16:28.360Z,1011.99